Latest Weather Observations for Jacup

IDW60801

Issued at 11:02 pm WST Friday 27 February 2015 (issued every 30 minutes, with the page automatically refreshed every 10 minutes)

About weather observations | Map of weather stations | Latest weather observations for WA | Other Formats
Station Details ID: 010905 Name: JACUP Lat: -33.89 Lon: 119.11 Height: 305.0 m
Data from the previous 72 hours. | See also: Recent months at Jacup
Date/Time
WST
Temp
°C
App
Temp
°C
Dew
Point
Rel
Hum
%
Delta-T
°C
Wind Press
QNH
hPa
Press
MSL
hPa
Rain
since 9 am
mm
Dir
 
Spd
km/h
Gust
km/h
Spd
kts
Gust
kts
27/11:00pm 15.5 15.2 14.5 94 0.6 SSW 9 11 5 6 1014.8 1013.6 1.0
27/10:30pm 15.1 15.3 14.3 95 0.5 S 6 7 3 4 1014.7 1013.5 1.0
27/10:00pm 13.7 13.4 12.8 94 0.5 SSE 6 7 3 4 1014.3 1013.1 1.0
27/09:30pm 13.6 13.1 12.7 94 0.5 SSE 7 9 4 5 1014.3 1013.1 1.0
27/09:00pm 14.0 13.2 12.9 93 0.6 SSE 9 11 5 6 1013.9 1012.8 1.0
27/08:30pm 14.2 13.4 12.9 92 0.7 SSE 9 13 5 7 1013.7 1012.6 1.0
27/08:00pm 14.4 13.4 12.4 88 1.1 SE 9 11 5 6 1013.2 1012.1 1.0
27/07:30pm 15.6 15.2 12.9 84 1.5 SSE 7 11 4 6 1013.0 1011.9 1.0
27/07:00pm 17.0 15.5 13.1 78 2.2 SSE 13 20 7 11 1012.6 1011.4 1.0
27/06:30pm 18.0 15.2 12.7 71 3.0 SSE 19 28 10 15 1012.1 1010.9 1.0
27/06:00pm 19.0 16.0 12.0 64 3.9 SSE 19 30 10 16 1011.5 1010.3 1.0
27/05:30pm 19.7 16.7 12.5 63 4.1 SSE 20 32 11 17 1011.2 1010.0 1.0
27/05:00pm 20.4 16.7 12.6 61 4.5 S 24 33 13 18 1010.9 1009.7 1.0
27/04:30pm 20.6 17.0 13.1 62 4.3 SSE 24 35 13 19 1010.7 1009.5 1.0
27/04:00pm 20.5 17.8 13.5 64 4.1 S 20 30 11 16 1010.4 1009.3 1.0
27/03:30pm 20.3 16.4 13.3 64 4.1 S 26 37 14 20 1010.1 1009.0 1.0
27/03:00pm 20.5 17.8 14.6 69 3.5 S 22 33 12 18 1009.7 1008.5 1.0
27/02:30pm 20.6 18.8 16.0 75 2.8 S 20 33 11 18 1009.6 1008.4 1.0
27/02:00pm 19.6 17.3 16.6 83 1.8 S 24 35 13 19 1009.5 1008.3 1.0
27/01:30pm 18.7 17.3 17.0 90 1.0 S 20 33 11 18 1009.5 1008.3 1.0
27/01:00pm 17.9 14.9 16.9 94 0.6 SSW 28 39 15 21 1009.3 1008.1 1.0
27/12:30pm 18.6 16.2 17.3 92 0.8 SSW 26 41 14 22 1009.1 1007.9 0.8
27/12:00pm 19.2 16.8 18.2 94 0.6 SSW 28 39 15 21 1008.7 1007.5 0.8
27/11:30am 20.3 19.4 19.1 93 0.8 SSW 22 35 12 19 1008.3 1007.1 0.6
27/11:00am 20.0 19.1 19.0 94 0.6 SSW 22 32 12 17 1008.0 1006.8 0.4
27/10:30am 20.2 19.9 19.2 94 0.6 SSW 19 26 10 14 1007.6 1006.4 0.2
27/10:00am 20.1 21.0 19.3 95 0.5 SSW 13 20 7 11 1007.5 1006.3 0.2
27/09:30am 19.9 21.1 19.1 95 0.5 SSW 11 15 6 8 1007.2 1006.0 0.0
27/09:00am 19.4 20.4 18.7 96 0.4 S 11 17 6 9 1006.8 1005.6 0.6
27/08:30am 19.3 20.8 18.8 97 0.3 SSE 9 13 5 7 1006.5 1005.3 0.6
27/08:00am 19.0 20.3 18.5 97 0.3 SSE 9 13 5 7 1006.5 1005.3 0.6
27/07:30am 18.9 20.6 18.4 97 0.3 SE 7 11 4 6 1006.4 1005.2 0.6
27/07:00am 18.7 19.5 18.2 97 0.3 SE 11 15 6 8 1006.2 1005.0 0.6
27/06:30am 18.5 19.2 18.0 97 0.3 SE 11 15 6 8 1005.9 1004.7 0.6
27/06:00am 18.4 19.1 17.9 97 0.3 SE 11 15 6 8 1005.7 1004.5 0.6
27/05:30am 18.3 18.6 17.8 97 0.3 SE 13 19 7 10 1005.3 1004.1 0.6
27/05:00am 18.1 18.2 17.5 96 0.4 SE 13 19 7 10 1005.5 1004.3 0.6
27/04:30am 18.0 18.8 17.2 95 0.5 ESE 9 13 5 7 1005.5 1004.3 0.6
27/04:00am 18.0 19.0 16.9 93 0.7 ESE 7 11 4 6 1005.5 1004.3 0.6
27/03:30am 18.8 19.5 17.1 90 1.0 SE 9 13 5 7 1005.4 1004.2 0.6
27/03:00am 19.2 20.0 17.2 88 1.2 E 9 11 5 6 1005.7 1004.5 0.6
27/02:30am 19.0 19.8 17.3 90 1.0 SSE 9 13 5 7 1005.8 1004.6 0.6
27/02:00am 18.8 18.7 16.9 89 1.2 ENE 13 15 7 8 1005.4 1004.2 0.6
27/01:30am 18.7 18.6 17.0 90 1.0 ENE 13 15 7 8 1005.7 1004.5 0.6
27/01:00am 19.1 19.8 17.1 88 1.2 ENE 9 13 5 7 1006.1 1004.9 0.6
27/12:30am 19.4 20.2 17.2 87 1.4 NE 9 13 5 7 1006.6 1005.4 0.6
27/12:00am 19.8 20.6 17.2 85 1.6 E 9 13 5 7 1006.8 1005.6 0.6
 
Date/Time
WST
Temp
°C
App
Temp
°C
Dew
Point
Rel
Hum
%
Delta-T
°C
Wind Press
QNH
hPa
Press
MSL
hPa
Rain
since 9 am
mm
Dir
 
Spd
km/h
Gust
km/h
Spd
kts
Gust
kts
26/11:30pm 20.2 20.6 17.2 83 1.9 E 11 13 6 7 1007.0 1005.9 0.6
26/11:00pm 21.1 20.8 17.3 79 2.4 NE 15 20 8 11 1007.9 1006.7 0.6
26/10:30pm 21.2 22.5 17.2 78 2.5 SW 6 11 3 6 1008.7 1007.5 0.6
26/10:15pm 21.6 19.2 17.4 77 2.6 W 26 59 14 32 1007.7 1006.5 0.6
26/10:10pm 20.6 18.3 17.6 83 1.9 W 26 59 14 32 1009.8 1008.6 0.6
26/10:04pm 19.9 18.8 17.7 87 1.4 N 20 37 11 20 1009.7 1008.5 0.6
26/10:00pm 19.8 18.3 17.8 88 1.2 NNE 22 30 12 16 1007.4 1006.2 0.6
26/09:30pm 19.3 19.7 17.3 88 1.2 ENE 11 15 6 8 1007.6 1006.4 0.6
26/09:00pm 19.7 20.1 17.3 86 1.5 E 11 13 6 7 1007.8 1006.6 0.6
26/08:30pm 20.2 20.7 17.4 84 1.7 ENE 11 15 6 8 1007.8 1006.6 0.6
26/08:00pm 20.3 19.4 17.7 85 1.6 NE 19 28 10 15 1007.4 1006.2 0.6
26/07:30pm 20.3 21.2 17.5 84 1.7 NE 9 15 5 8 1007.3 1006.1 0.6
26/07:00pm 20.4 21.1 18.0 86 1.5 NE 11 15 6 8 1006.9 1005.7 0.6
26/06:30pm 20.7 20.6 17.9 84 1.8 E 15 22 8 12 1007.0 1005.9 0.6
26/06:00pm 20.8 19.7 17.8 83 1.9 E 20 28 11 15 1007.4 1006.2 0.6
26/05:30pm 22.2 21.3 18.2 78 2.5 E 20 28 11 15 1007.5 1006.3 0.6
26/05:00pm 21.6 19.8 17.8 79 2.4 E 24 33 13 18 1007.4 1006.2 0.6
26/04:30pm 23.1 20.6 18.0 73 3.2 ESE 28 37 15 20 1007.4 1006.2 0.6
26/04:00pm 25.2 23.6 18.4 66 4.4 SE 24 35 13 19 1007.3 1006.1 0.6
26/03:30pm 25.0 22.9 18.0 65 4.5 SE 26 39 14 21 1007.4 1006.2 0.6
26/03:00pm 25.6 24.6 18.0 63 4.9 SE 20 32 11 17 1007.8 1006.6 0.6
26/02:30pm 25.0 24.1 18.2 66 4.3 SE 20 30 11 16 1007.9 1006.7 0.6
26/02:00pm 26.0 25.7 19.2 66 4.4 SE 19 33 10 18 1007.9 1006.7 0.6
26/01:30pm 26.6 25.8 19.2 64 4.8 SE 22 32 12 17 1007.8 1006.6 0.6
26/01:00pm 26.6 26.9 19.5 65 4.7 ESE 17 26 9 14 1008.0 1006.8 0.6
26/12:30pm 24.9 25.1 19.3 71 3.6 ENE 17 22 9 12 1008.3 1007.1 0.6
26/12:00pm 23.9 24.3 19.8 78 2.7 E 17 24 9 13 1008.9 1007.7 0.6
26/11:30am 22.2 22.5 19.6 85 1.7 SE 17 22 9 12 1009.6 1008.4 0.6
26/11:00am 20.3 20.4 19.1 93 0.8 SE 17 22 9 12 1009.9 1008.8 0.6
26/10:30am 19.8 19.8 19.0 95 0.5 ESE 17 20 9 11 1010.1 1009.0 0.6
26/10:00am 19.8 20.1 18.8 94 0.6 ESE 15 20 8 11 1010.4 1009.3 0.0
26/09:30am 19.3 19.9 18.6 96 0.4 ESE 13 20 7 11 1010.4 1009.3 0.0
26/09:00am 18.9 18.9 18.2 96 0.4 ESE 15 20 8 11 1010.2 1009.1 0.6
26/08:30am 18.9 18.6 18.2 96 0.4 ESE 17 22 9 12 1010.2 1009.1 0.6
26/08:00am 18.5 18.1 18.0 97 0.3 SE 17 22 9 12 1010.8 1009.6 0.4
26/07:30am 18.3 18.6 17.8 97 0.3 SE 13 19 7 10 1011.2 1010.0 0.4
26/07:00am 18.2 18.4 17.7 97 0.3 SE 13 19 7 10 1010.9 1009.7 0.4
26/06:30am 18.1 17.9 17.6 97 0.3 ESE 15 19 8 10 1010.3 1009.2 0.4
26/06:00am 17.9 17.6 17.4 97 0.3 ESE 15 22 8 12 1010.4 1009.3 0.4
26/05:30am 17.9 17.2 17.4 97 0.3 ESE 17 24 9 13 1010.1 1009.0 0.4
26/05:00am 17.8 17.5 17.3 97 0.3 ESE 15 22 8 12 1009.5 1008.3 0.4
26/04:30am 17.7 16.9 17.2 97 0.3 ESE 17 26 9 14 1009.9 1008.8 0.4
26/04:00am 17.8 17.5 17.3 97 0.3 ESE 15 22 8 12 1009.8 1008.6 0.2
26/03:30am 17.6 17.2 17.1 97 0.3 SE 15 22 8 12 1010.0 1008.9 0.2
26/03:00am 17.5 16.7 17.0 97 0.3 SSE 17 22 9 12 1010.3 1009.2 0.2
26/02:30am 17.6 17.6 17.1 97 0.3 SE 13 20 7 11 1010.1 1009.0 0.2
26/02:00am 17.6 17.6 17.1 97 0.3 ESE 13 20 7 11 1009.9 1008.8 0.2
26/01:30am 17.6 16.4 17.0 96 0.4 ESE 19 28 10 15 1009.8 1008.6 0.2
26/01:00am 17.6 16.4 17.0 96 0.4 SE 19 26 10 14 1010.4 1009.3 0.2
26/12:30am 17.6 16.3 16.8 95 0.5 ESE 19 24 10 13 1010.9 1009.7 0.2
26/12:00am 17.6 16.8 17.0 96 0.4 ESE 17 24 9 13 1011.7 1010.5 0.2
 
Date/Time
WST
Temp
°C
App
Temp
°C
Dew
Point
Rel
Hum
%
Delta-T
°C
Wind Press
QNH
hPa
Press
MSL
hPa
Rain
since 9 am
mm
Dir
 
Spd
km/h
Gust
km/h
Spd
kts
Gust
kts
25/11:30pm 17.4 17.2 16.6 95 0.5 E 13 19 7 10 1011.6 1010.4 0.2
25/11:00pm 17.5 17.4 16.9 96 0.4 SE 13 22 7 12 1012.1 1010.9 0.2
25/10:30pm 17.4 16.4 16.6 95 0.5 SSE 17 32 9 17 1012.7 1011.5 0.2
25/10:00pm 17.3 15.7 16.5 95 0.5 E 20 30 11 16 1011.7 1010.5 0.2
25/09:30pm 17.4 15.4 16.4 94 0.6 E 22 32 12 17 1012.1 1010.9 0.2
25/09:27pm 17.3 15.2 16.3 94 0.6 E 22 32 12 17 1012.3 1011.1 0.2
25/09:00pm 17.5 17.1 16.2 92 0.8 SSW 13 19 7 10 1014.4 1013.2 0.0
25/08:30pm 17.7 17.2 15.9 89 1.1 SSE 13 20 7 11 1013.5 1012.4 0.0
25/08:00pm 17.7 15.9 15.9 89 1.1 SE 20 26 11 14 1012.5 1011.3 0.0
25/07:30pm 18.0 16.1 15.8 87 1.3 SE 20 30 11 16 1012.3 1011.1 0.0
25/07:00pm 18.4 16.7 15.8 85 1.6 SE 19 30 10 16 1011.4 1010.2 0.0
25/06:30pm 18.7 16.5 15.9 84 1.7 SE 22 32 12 17 1011.1 1009.9 0.0
25/06:00pm 19.2 17.1 16.1 82 1.9 SE 22 33 12 18 1011.1 1009.9 0.0
25/05:30pm 20.0 17.5 16.2 79 2.3 SE 24 37 13 20 1010.9 1009.7 0.0
25/05:00pm 20.5 17.8 16.5 78 2.4 SSE 26 37 14 20 1010.7 1009.5 0.0
25/04:30pm 23.2 20.5 16.5 66 4.1 SSE 26 35 14 19 1010.4 1009.3 0.0
25/04:00pm 24.9 22.8 17.1 62 4.9 SSE 24 37 13 20 1010.0 1008.9 0.0
25/03:30pm 26.2 23.5 17.6 59 5.5 SE 28 39 15 21 1009.9 1008.8 0.0
25/03:00pm 26.3 23.6 17.6 58 5.5 SSE 28 41 15 22 1010.0 1008.9 0.0
25/02:30pm 27.3 25.1 17.8 56 6.1 S 26 41 14 22 1010.1 1009.0 0.0
25/02:00pm 27.5 26.1 17.9 55 6.2 SSE 22 33 12 18 1010.2 1009.1 0.0
25/01:30pm 28.2 27.0 18.3 55 6.4 S 22 33 12 18 1010.4 1009.3 0.0
25/01:00pm 28.1 26.8 18.2 55 6.4 S 22 32 12 17 1010.3 1009.2 0.0
25/12:30pm 28.2 27.5 18.3 55 6.4 S 19 26 10 14 1010.3 1009.2 0.0
25/12:00pm 27.1 26.4 18.7 60 5.4 S 20 33 11 18 1010.6 1009.4 0.0
25/11:30am 27.4 26.6 18.4 58 5.8 S 20 30 11 16 1010.9 1009.7 0.0
25/11:00am 26.5 25.9 18.4 61 5.2 S 19 28 10 15 1011.4 1010.2 0.0
25/10:30am 26.6 26.7 19.2 64 4.8 S 17 28 9 15 1011.6 1010.4 0.0
25/10:00am 25.9 26.6 18.8 65 4.6 S 13 20 7 11 1011.7 1010.5 0.0
25/09:30am 23.6 23.5 18.7 74 3.1 S 17 24 9 13 1011.9 1010.7 0.0
25/09:00am 21.4 21.6 18.6 84 1.8 S 15 20 8 11 1011.9 1010.7 1.6
25/08:30am 20.5 20.7 18.6 89 1.2 SSW 15 22 8 12 1011.8 1010.6 1.6
25/08:00am 20.3 20.6 18.8 91 1.0 S 15 20 8 11 1011.6 1010.4 1.6
25/07:30am 20.1 21.7 19.1 94 0.6 S 9 15 5 8 1011.2 1010.0 1.6
25/07:00am 19.5 22.6 18.7 95 0.5 CALM 0 0 0 0 1010.7 1009.5 1.6
25/06:30am 19.5 21.2 18.5 94 0.6 S 7 15 4 8 1010.8 1009.6 1.6
25/06:00am 19.7 20.6 18.4 92 0.8 S 11 17 6 9 1010.6 1009.4 1.6
25/05:30am 20.5 21.4 18.4 88 1.3 SSW 11 17 6 9 1010.3 1009.2 1.6
25/05:00am 23.1 23.8 18.0 73 3.2 SW 11 20 6 11 1010.1 1009.0 1.6
25/04:30am 23.1 23.4 18.0 73 3.2 N 13 19 7 10 1009.2 1008.0 1.6
25/04:00am 23.4 22.6 18.1 72 3.4 N 19 24 10 13 1008.7 1007.5 1.6
25/03:30am 23.3 23.3 18.0 72 3.4 N 15 17 8 9 1008.6 1007.4 1.6
25/03:00am 23.5 23.2 18.2 72 3.4 N 17 24 9 13 1008.5 1007.3 1.6
25/02:30am 22.9 23.0 18.4 76 2.9 N 15 19 8 10 1008.7 1007.5 1.6
25/02:00am 22.9 23.4 18.4 76 2.9 N 13 17 7 9 1008.8 1007.6 1.6
25/01:30am 22.8 22.9 18.3 76 2.9 NNE 15 20 8 11 1008.8 1007.6 1.6
25/01:00am 23.2 22.3 18.1 73 3.2 N 20 26 11 14 1009.5 1008.3 1.6
25/12:30am 22.5 22.2 18.3 77 2.7 N 17 22 9 12 1009.8 1008.6 1.6
25/12:00am 22.1 21.5 18.9 82 2.0 NNE 20 26 11 14 1009.9 1008.8 1.6
 
Date/Time
WST
Temp
°C
App
Temp
°C
Dew
Point
Rel
Hum
%
Delta-T
°C
Wind Press
QNH
hPa
Press
MSL
hPa
Rain
since 9 am
mm
Dir
 
Spd
km/h
Gust
km/h
Spd
kts
Gust
kts
24/11:30pm 21.9 22.0 19.1 84 1.8 NNE 17 22 9 12 1009.7 1008.5 1.6

Other Formats:

Comma delimited format used in spreadsheet applications
http://www.bom.gov.au/fwo/IDW60801/IDW60801.95636.axf

JavaScript Object Notation format (JSON) in row-major order
http://www.bom.gov.au/fwo/IDW60801/IDW60801.95636.json